createdAt,value
2023-03-12T00:00:01.194Z,2.6
2023-03-12T00:01:00.579Z,2.6
2023-03-12T00:02:00.684Z,2.6
2023-03-12T00:03:00.687Z,2.4
2023-03-12T00:04:01.343Z,2.4
2023-03-12T00:05:00.606Z,2.4
2023-03-12T00:06:09.998Z,2.4
2023-03-12T00:07:01.338Z,2.4
2023-03-12T00:08:00.595Z,2.4
2023-03-12T00:09:00.580Z,2.4
2023-03-12T00:10:00.957Z,2.4
2023-03-12T00:11:04.311Z,2.4
2023-03-12T00:12:00.590Z,2.4
2023-03-12T00:13:00.685Z,2.4
2023-03-12T00:14:00.587Z,2.4
2023-03-12T00:15:00.629Z,2.4
2023-03-12T00:16:02.568Z,2.4
2023-03-12T00:17:00.567Z,2.4
2023-03-12T00:18:00.570Z,2.4
2023-03-12T00:19:00.627Z,2.4
2023-03-12T00:20:00.778Z,2.4
2023-03-12T00:21:00.578Z,2.4
2023-03-12T00:22:00.576Z,2.4
2023-03-12T00:23:01.521Z,2.9
2023-03-12T00:24:00.593Z,2.9
2023-03-12T00:25:00.936Z,2.9
2023-03-12T00:26:02.042Z,2.9
2023-03-12T00:27:00.616Z,2.9
2023-03-12T00:28:00.547Z,2.9
2023-03-12T00:29:00.573Z,2.9
2023-03-12T00:30:00.633Z,2.9
2023-03-12T00:31:01.309Z,2.9
2023-03-12T00:32:00.606Z,2.9
2023-03-12T00:33:00.573Z,2.9
2023-03-12T00:34:01.186Z,2.9
2023-03-12T00:35:00.679Z,2.9
2023-03-12T00:36:00.635Z,2.9
2023-03-12T00:37:00.573Z,2.9
2023-03-12T00:38:00.560Z,2.9
2023-03-12T00:39:00.691Z,2.9
2023-03-12T00:40:00.575Z,2.9
2023-03-12T00:41:00.883Z,2.9
2023-03-12T00:42:00.564Z,2.9
2023-03-12T00:43:00.628Z,2.3
2023-03-12T00:44:00.593Z,2.3
2023-03-12T00:45:00.597Z,2.3
2023-03-12T00:46:00.575Z,2.3
2023-03-12T00:47:00.654Z,2.3
2023-03-12T00:48:00.570Z,2.3
2023-03-12T00:49:00.564Z,2.3
2023-03-12T00:50:00.580Z,2.3
2023-03-12T00:51:00.548Z,2.3
2023-03-12T00:52:00.616Z,2.3
2023-03-12T00:53:00.587Z,2.3
2023-03-12T00:54:00.566Z,2.3
2023-03-12T00:55:00.557Z,2.3
2023-03-12T00:56:00.732Z,2.3
2023-03-12T00:57:00.629Z,2.3
2023-03-12T00:58:00.565Z,2.3
2023-03-12T00:59:00.670Z,2.3
2023-03-12T01:00:00.783Z,2.3
2023-03-12T01:01:00.663Z,2.3
2023-03-12T01:02:00.589Z,2.3
2023-03-12T01:03:00.570Z,3.2
2023-03-12T01:04:00.646Z,3.2
2023-03-12T01:05:00.572Z,3.2
2023-03-12T01:06:00.601Z,3.2
2023-03-12T01:07:00.576Z,3.2
2023-03-12T01:08:00.591Z,3.2
2023-03-12T01:09:02.504Z,3.2
2023-03-12T01:10:00.762Z,3.2
2023-03-12T01:11:00.581Z,3.2
2023-03-12T01:12:00.630Z,3.2
2023-03-12T01:13:00.571Z,3.2
2023-03-12T01:14:01.282Z,3.2
2023-03-12T01:15:00.725Z,3.2
2023-03-12T01:16:00.609Z,3.2
2023-03-12T01:17:00.556Z,3.2
2023-03-12T01:18:00.585Z,3.2
2023-03-12T01:19:01.968Z,3.2
2023-03-12T01:20:00.609Z,3.2
2023-03-12T01:21:00.747Z,3.2
2023-03-12T01:22:00.608Z,3.2
2023-03-12T01:23:00.608Z,2.6
2023-03-12T01:24:00.702Z,2.6
2023-03-12T01:25:00.622Z,2.6
2023-03-12T01:26:00.577Z,2.6
2023-03-12T01:27:00.590Z,2.6
2023-03-12T01:28:00.651Z,2.6
2023-03-12T01:29:00.573Z,2.6
2023-03-12T01:30:00.694Z,2.6
2023-03-12T01:31:08.625Z,2.6
2023-03-12T01:32:00.552Z,2.6
2023-03-12T01:33:00.620Z,2.6
2023-03-12T01:34:00.609Z,2.6
2023-03-12T01:35:00.724Z,2.6
2023-03-12T01:36:00.759Z,2.6
2023-03-12T01:37:00.756Z,2.6
2023-03-12T01:38:00.600Z,2.6
2023-03-12T01:39:00.583Z,2.6
2023-03-12T01:40:00.603Z,2.6
2023-03-12T01:41:00.559Z,2.6
2023-03-12T01:42:00.657Z,2.6
2023-03-12T01:43:10.514Z,2.6
2023-03-12T01:44:01.506Z,2.6
2023-03-12T01:45:02.346Z,2.6
2023-03-12T01:46:04.446Z,2.6
2023-03-12T01:47:00.557Z,2.6
2023-03-12T01:48:00.575Z,2.6
2023-03-12T01:49:00.546Z,2.6
2023-03-12T01:50:01.071Z,2.6
2023-03-12T01:51:01.409Z,2.6
2023-03-12T01:52:02.430Z,2.6
2023-03-12T01:53:00.627Z,2.6
2023-03-12T01:54:04.234Z,2.6
2023-03-12T01:55:04.113Z,2.6
2023-03-12T01:56:00.885Z,2.6
2023-03-12T01:57:01.974Z,2.6
2023-03-12T01:58:01.051Z,2.6
2023-03-12T01:59:04.625Z,2.6
2023-03-12T02:00:06.683Z,2.6
2023-03-12T02:01:00.653Z,2.6
2023-03-12T02:02:01.829Z,2.6
2023-03-12T02:03:04.519Z,2.3
2023-03-12T02:04:00.859Z,2.3
2023-03-12T02:05:05.313Z,2.3
2023-03-12T02:06:04.714Z,2.3
2023-03-12T02:07:09.326Z,2.3
2023-03-12T02:08:00.625Z,2.3
2023-03-12T02:09:02.113Z,2.3
2023-03-12T02:10:01.006Z,2.3
2023-03-12T02:11:00.837Z,2.3
2023-03-12T02:12:01.450Z,2.3
2023-03-12T02:13:00.589Z,2.3
2023-03-12T02:14:01.084Z,2.3
2023-03-12T02:15:00.859Z,2.3
2023-03-12T02:16:00.616Z,2.3
2023-03-12T02:17:00.747Z,2.3
2023-03-12T02:18:02.265Z,2.3
2023-03-12T02:19:01.150Z,2.3
2023-03-12T02:20:10.507Z,2.3
2023-03-12T02:21:10.494Z,2.3
2023-03-12T02:22:00.659Z,2.3
2023-03-12T02:23:10.512Z,2.5
2023-03-12T02:24:10.513Z,2.5
2023-03-12T02:25:00.555Z,2.5
2023-03-12T02:26:01.931Z,2.5
2023-03-12T02:27:00.736Z,2.5
2023-03-12T02:28:02.822Z,2.5
2023-03-12T02:29:00.637Z,2.5
2023-03-12T02:30:01.524Z,2.5
2023-03-12T02:31:02.143Z,2.5
2023-03-12T02:32:02.401Z,2.5
2023-03-12T02:33:01.468Z,2.5
2023-03-12T02:34:00.655Z,2.5
2023-03-12T02:35:00.846Z,2.5
2023-03-12T02:36:00.665Z,2.5
2023-03-12T02:37:00.623Z,2.5
2023-03-12T02:38:01.051Z,2.5
2023-03-12T02:39:00.981Z,2.5
2023-03-12T02:40:05.320Z,2.5
2023-03-12T02:41:02.907Z,2.5
2023-03-12T02:42:00.590Z,2.5
2023-03-12T02:43:01.440Z,2.5
2023-03-12T02:44:00.555Z,2.5
2023-03-12T02:45:02.059Z,2.5
2023-03-12T02:46:00.675Z,2.5
2023-03-12T02:47:00.842Z,2.5
2023-03-12T02:48:00.934Z,2.5
2023-03-12T02:49:00.862Z,2.5
2023-03-12T02:50:00.578Z,2.5
2023-03-12T02:51:00.617Z,2.5
2023-03-12T02:52:01.070Z,2.5
2023-03-12T02:53:00.562Z,2.5
2023-03-12T02:54:00.579Z,2.5
2023-03-12T02:55:01.002Z,2.5
2023-03-12T02:56:00.552Z,2.5
2023-03-12T02:57:00.558Z,2.5
2023-03-12T02:58:00.566Z,2.5
2023-03-12T02:59:03.221Z,2.5
2023-03-12T03:00:00.560Z,2.5
2023-03-12T03:01:00.861Z,2.5
2023-03-12T03:02:00.665Z,2.5
2023-03-12T03:03:00.875Z,2.4
2023-03-12T03:04:01.831Z,2.4
2023-03-12T03:05:00.560Z,2.4
2023-03-12T03:06:00.589Z,2.4
2023-03-12T03:07:00.610Z,2.4
2023-03-12T03:08:00.591Z,2.4
2023-03-12T03:09:00.705Z,2.4
2023-03-12T03:10:00.565Z,2.4
2023-03-12T03:11:00.595Z,2.4
2023-03-12T03:12:00.554Z,2.4
2023-03-12T03:13:00.553Z,2.4
2023-03-12T03:14:00.611Z,2.4
2023-03-12T03:15:00.628Z,2.4
2023-03-12T03:16:01.073Z,2.4
2023-03-12T03:17:00.583Z,2.4
2023-03-12T03:18:00.556Z,2.4
2023-03-12T03:19:00.749Z,2.4
2023-03-12T03:20:00.551Z,2.4
2023-03-12T03:21:02.950Z,2.4
2023-03-12T03:22:00.561Z,2.7
2023-03-12T03:23:00.550Z,2.7
2023-03-12T03:24:00.624Z,2.7
2023-03-12T03:25:00.575Z,2.7
2023-03-12T03:26:00.688Z,2.7
2023-03-12T03:27:00.699Z,2.7
2023-03-12T03:28:00.562Z,2.7
2023-03-12T03:29:00.580Z,2.7
2023-03-12T03:30:00.591Z,2.7
2023-03-12T03:31:00.713Z,2.7
2023-03-12T03:32:00.699Z,2.7
2023-03-12T03:33:00.573Z,2.7
2023-03-12T03:34:00.698Z,2.7
2023-03-12T03:35:00.589Z,2.7
2023-03-12T03:36:01.147Z,2.7
2023-03-12T03:37:00.565Z,2.7
2023-03-12T03:38:01.051Z,2.7
2023-03-12T03:39:00.571Z,2.7
2023-03-12T03:40:00.557Z,2.7
2023-03-12T03:41:00.728Z,2.7
2023-03-12T03:42:00.570Z,2.2
2023-03-12T03:43:00.549Z,2.2
2023-03-12T03:44:02.170Z,2.2
2023-03-12T03:45:00.564Z,2.2
2023-03-12T03:46:03.264Z,2.2
2023-03-12T03:47:00.715Z,2.2
2023-03-12T03:48:00.543Z,2.2
2023-03-12T03:49:00.964Z,2.2
2023-03-12T03:50:00.672Z,2.2
2023-03-12T03:51:02.363Z,2.2
2023-03-12T03:52:00.584Z,2.2
2023-03-12T03:53:00.581Z,2.2
2023-03-12T03:54:00.583Z,2.2
2023-03-12T03:55:00.677Z,2.2
2023-03-12T03:56:04.634Z,2.2
2023-03-12T03:57:00.606Z,2.2
2023-03-12T03:58:00.573Z,2.2
2023-03-12T03:59:00.836Z,2.2
2023-03-12T04:00:03.491Z,2.2
2023-03-12T04:01:00.631Z,2.2
2023-03-12T04:02:00.574Z,2.7
2023-03-12T04:03:00.622Z,2.7
2023-03-12T04:04:00.546Z,2.7
2023-03-12T04:05:00.618Z,2.7
2023-03-12T04:06:01.831Z,2.7
2023-03-12T04:07:00.542Z,2.7
2023-03-12T04:08:00.585Z,2.7
2023-03-12T04:09:00.577Z,2.7
2023-03-12T04:10:00.596Z,2.7
2023-03-12T04:11:08.626Z,2.7
2023-03-12T04:12:00.618Z,2.7
2023-03-12T04:13:00.573Z,2.7
2023-03-12T04:14:00.573Z,2.7
2023-03-12T04:15:00.637Z,2.7
2023-03-12T04:16:00.733Z,2.7
2023-03-12T04:17:00.563Z,2.7
2023-03-12T04:18:00.767Z,2.7
2023-03-12T04:19:00.574Z,2.7
2023-03-12T04:20:00.639Z,2.7
2023-03-12T04:21:00.956Z,2.7
2023-03-12T04:22:00.884Z,2.6
2023-03-12T04:23:00.569Z,2.6
2023-03-12T04:24:00.559Z,2.6
2023-03-12T04:25:00.705Z,2.6
2023-03-12T04:26:00.564Z,2.6
2023-03-12T04:27:00.736Z,2.6
2023-03-12T04:28:00.567Z,2.6
2023-03-12T04:29:00.577Z,2.6
2023-03-12T04:30:00.579Z,2.6
2023-03-12T04:31:01.710Z,2.6
2023-03-12T04:32:00.581Z,2.6
2023-03-12T04:33:00.557Z,2.6
2023-03-12T04:34:00.570Z,2.6
2023-03-12T04:35:00.582Z,2.6
2023-03-12T04:36:00.892Z,2.6
2023-03-12T04:37:00.978Z,2.6
2023-03-12T04:38:01.203Z,2.6
2023-03-12T04:39:00.557Z,2.6
2023-03-12T04:40:00.985Z,2.6
2023-03-12T04:41:02.250Z,2.6
2023-03-12T04:42:00.592Z,4.1
2023-03-12T04:43:00.606Z,4.1
2023-03-12T04:44:01.016Z,4.1
2023-03-12T04:45:00.916Z,4.1
2023-03-12T04:46:01.004Z,4.1
2023-03-12T04:47:00.647Z,4.1
2023-03-12T04:48:00.585Z,4.1
2023-03-12T04:49:00.569Z,4.1
2023-03-12T04:50:00.604Z,4.1
2023-03-12T04:51:01.366Z,4.1
2023-03-12T04:52:00.599Z,4.1
2023-03-12T04:53:00.688Z,4.1
2023-03-12T04:54:00.571Z,4.1
2023-03-12T04:55:00.778Z,4.1
2023-03-12T04:56:00.598Z,4.1
2023-03-12T04:57:00.584Z,4.1
2023-03-12T04:58:00.585Z,4.1
2023-03-12T04:59:00.599Z,4.1
2023-03-12T05:00:00.603Z,4.1
2023-03-12T05:01:00.584Z,4.1
2023-03-12T05:02:00.586Z,2.5
2023-03-12T05:03:00.683Z,2.5
2023-03-12T05:04:01.066Z,2.5
2023-03-12T05:05:00.609Z,2.5
2023-03-12T05:06:00.585Z,2.5
2023-03-12T05:07:00.939Z,2.5
2023-03-12T05:08:01.013Z,2.5
2023-03-12T05:09:00.591Z,2.5
2023-03-12T05:10:00.610Z,2.5
2023-03-12T05:11:00.583Z,2.5
2023-03-12T05:12:00.643Z,2.5
2023-03-12T05:13:00.615Z,2.5
2023-03-12T05:14:00.586Z,2.5
2023-03-12T05:15:00.575Z,2.5
2023-03-12T05:16:00.667Z,2.5
2023-03-12T05:17:00.610Z,2.5
2023-03-12T05:18:00.582Z,2.5
2023-03-12T05:19:00.561Z,2.5
2023-03-12T05:20:00.668Z,2.5
2023-03-12T05:21:01.437Z,2.5
2023-03-12T05:22:00.582Z,2.7
2023-03-12T05:23:00.658Z,2.7
2023-03-12T05:24:00.620Z,2.7
2023-03-12T05:25:00.938Z,2.7
2023-03-12T05:26:00.712Z,2.7
2023-03-12T05:27:00.568Z,2.7
2023-03-12T05:28:00.586Z,2.7
2023-03-12T05:29:01.063Z,2.7
2023-03-12T05:30:00.669Z,2.7
2023-03-12T05:31:00.587Z,2.7
2023-03-12T05:32:01.097Z,2.7
2023-03-12T05:33:00.597Z,2.7
2023-03-12T05:34:01.607Z,2.7
2023-03-12T05:35:00.586Z,2.7
2023-03-12T05:36:00.638Z,2.7
2023-03-12T05:37:00.605Z,2.7
2023-03-12T05:38:00.584Z,2.7
2023-03-12T05:39:00.580Z,2.7
2023-03-12T05:40:00.607Z,2.7
2023-03-12T05:41:01.143Z,2.7
2023-03-12T05:42:00.572Z,2.7
2023-03-12T05:43:00.591Z,2.7
2023-03-12T05:44:00.586Z,2.7
2023-03-12T05:45:00.660Z,2.7
2023-03-12T05:46:01.652Z,2.7
2023-03-12T05:47:00.584Z,2.7
2023-03-12T05:48:00.617Z,2.7
2023-03-12T05:49:00.578Z,2.7
2023-03-12T05:50:00.582Z,2.7
2023-03-12T05:51:00.574Z,2.7
2023-03-12T05:52:00.588Z,2.7
2023-03-12T05:53:00.587Z,2.7
2023-03-12T05:54:00.909Z,2.7
2023-03-12T05:55:00.574Z,2.7
2023-03-12T05:56:03.279Z,2.7
2023-03-12T05:57:00.572Z,2.7
2023-03-12T05:58:00.886Z,2.7
2023-03-12T05:59:00.576Z,2.7
2023-03-12T06:00:00.691Z,2.7
2023-03-12T06:01:00.859Z,2.7
2023-03-12T06:02:01.048Z,2.6
2023-03-12T06:03:00.608Z,2.6
2023-03-12T06:04:00.658Z,2.6
2023-03-12T06:05:00.563Z,2.6
2023-03-12T06:06:00.581Z,2.6
2023-03-12T06:07:00.573Z,2.6
2023-03-12T06:08:00.982Z,2.6
2023-03-12T06:09:01.066Z,2.6
2023-03-12T06:10:00.594Z,2.6
2023-03-12T06:11:00.612Z,2.6
2023-03-12T06:12:00.681Z,2.6
2023-03-12T06:13:00.576Z,2.6
2023-03-12T06:14:00.875Z,2.6
2023-03-12T06:15:00.570Z,2.6
2023-03-12T06:16:01.390Z,2.6
2023-03-12T06:17:01.126Z,2.6
2023-03-12T06:18:00.596Z,2.6
2023-03-12T06:19:01.379Z,2.6
2023-03-12T06:20:00.899Z,2.6
2023-03-12T06:21:10.508Z,2.5
2023-03-12T06:22:00.573Z,2.5
2023-03-12T06:23:00.643Z,2.5
2023-03-12T06:24:01.066Z,2.5
2023-03-12T06:25:00.688Z,2.5
2023-03-12T06:26:00.611Z,2.5
2023-03-12T06:27:00.550Z,2.5
2023-03-12T06:28:00.556Z,2.5
2023-03-12T06:29:00.590Z,2.5
2023-03-12T06:30:00.592Z,2.5
2023-03-12T06:31:01.130Z,2.5
2023-03-12T06:32:00.704Z,2.5
2023-03-12T06:33:00.707Z,2.5
2023-03-12T06:34:00.574Z,2.5
2023-03-12T06:35:00.661Z,2.5
2023-03-12T06:36:01.624Z,2.5
2023-03-12T06:37:00.581Z,2.5
2023-03-12T06:38:00.563Z,2.5
2023-03-12T06:39:00.598Z,2.5
2023-03-12T06:40:00.630Z,2.5
2023-03-12T06:41:02.537Z,2.3
2023-03-12T06:42:00.750Z,2.3
2023-03-12T06:43:00.561Z,2.3
2023-03-12T06:44:01.018Z,2.3
2023-03-12T06:45:00.751Z,2.3
2023-03-12T06:46:01.130Z,2.3
2023-03-12T06:47:00.596Z,2.3
2023-03-12T06:48:00.568Z,2.3
2023-03-12T06:49:00.551Z,2.3
2023-03-12T06:50:00.548Z,2.3
2023-03-12T06:51:00.575Z,2.3
2023-03-12T06:52:00.566Z,2.3
2023-03-12T06:53:00.556Z,2.3
2023-03-12T06:54:00.747Z,2.3
2023-03-12T06:55:00.555Z,2.3
2023-03-12T06:56:00.752Z,2.3
2023-03-12T06:57:00.566Z,2.3
2023-03-12T06:58:00.595Z,2.3
2023-03-12T06:59:00.581Z,2.3
2023-03-12T07:00:00.675Z,2.3
2023-03-12T07:01:00.549Z,2.3
2023-03-12T07:02:00.640Z,2.3
2023-03-12T07:03:00.608Z,2.3
2023-03-12T07:04:00.583Z,2.3
2023-03-12T07:05:00.654Z,2.3
2023-03-12T07:06:00.585Z,2.3
2023-03-12T07:07:00.610Z,2.3
2023-03-12T07:08:00.560Z,2.3
2023-03-12T07:09:00.577Z,2.3
2023-03-12T07:10:00.604Z,2.3
2023-03-12T07:11:01.816Z,2.3
2023-03-12T07:12:00.619Z,2.3
2023-03-12T07:13:00.562Z,2.3
2023-03-12T07:14:00.670Z,2.3
2023-03-12T07:15:00.558Z,2.3
2023-03-12T07:16:01.213Z,2.3
2023-03-12T07:17:00.553Z,2.3
2023-03-12T07:18:03.042Z,2.3
2023-03-12T07:19:00.754Z,2.3
2023-03-12T07:20:00.784Z,2.3
2023-03-12T07:21:00.606Z,2.1
2023-03-12T07:22:00.703Z,2.1
2023-03-12T07:23:00.591Z,2.1
2023-03-12T07:24:00.617Z,2.1
2023-03-12T07:25:00.582Z,2.1
2023-03-12T07:26:02.269Z,2.1
2023-03-12T07:27:00.556Z,2.1
2023-03-12T07:28:00.595Z,2.1
2023-03-12T07:29:01.438Z,2.1
2023-03-12T07:30:00.630Z,2.1
2023-03-12T07:31:01.681Z,2.1
2023-03-12T07:32:00.603Z,2.1
2023-03-12T07:33:01.343Z,2.1
2023-03-12T07:34:00.671Z,2.1
2023-03-12T07:35:00.568Z,2.1
2023-03-12T07:36:00.969Z,2.1
2023-03-12T07:37:00.557Z,2.1
2023-03-12T07:38:01.084Z,2.1
2023-03-12T07:39:00.586Z,2.1
2023-03-12T07:40:00.703Z,2.1
2023-03-12T07:41:00.669Z,2.2
2023-03-12T07:42:00.655Z,2.2
2023-03-12T07:43:01.239Z,2.2
2023-03-12T07:44:00.744Z,2.2
2023-03-12T07:45:00.858Z,2.2
2023-03-12T07:46:00.560Z,2.2
2023-03-12T07:47:12.838Z,2.2
2023-03-12T07:48:00.602Z,2.2
2023-03-12T07:49:00.558Z,2.2
2023-03-12T07:50:00.779Z,2.2
2023-03-12T07:51:00.611Z,2.2
2023-03-12T07:52:00.636Z,2.2
2023-03-12T07:53:00.598Z,2.2
2023-03-12T07:54:00.556Z,2.2
2023-03-12T07:55:00.695Z,2.2
2023-03-12T07:56:00.650Z,2.2
2023-03-12T07:57:00.902Z,2.2
2023-03-12T07:58:00.939Z,2.2
2023-03-12T07:59:00.705Z,2.2
2023-03-12T08:00:00.657Z,2.2
2023-03-12T08:01:01.102Z,1.9
2023-03-12T08:02:00.877Z,1.9
2023-03-12T08:03:00.777Z,1.9
2023-03-12T08:04:01.187Z,1.9
2023-03-12T08:05:00.589Z,1.9
2023-03-12T08:06:01.771Z,1.9
2023-03-12T08:07:01.139Z,1.9
2023-03-12T08:08:00.575Z,1.9
2023-03-12T08:09:00.603Z,1.9
2023-03-12T08:10:01.594Z,1.9
2023-03-12T08:11:02.459Z,1.9
2023-03-12T08:12:00.693Z,1.9
2023-03-12T08:13:00.661Z,1.9
2023-03-12T08:14:00.578Z,1.9
2023-03-12T08:15:00.580Z,1.9
2023-03-12T08:16:00.628Z,1.9
2023-03-12T08:17:00.616Z,1.9
2023-03-12T08:18:00.573Z,1.9
2023-03-12T08:19:00.589Z,1.9
2023-03-12T08:20:00.571Z,1.9
2023-03-12T08:21:00.551Z,2.0
2023-03-12T08:22:00.557Z,2.0
2023-03-12T08:23:00.547Z,2.0
2023-03-12T08:24:00.544Z,2.0
2023-03-12T08:25:00.579Z,2.0
2023-03-12T08:26:00.561Z,2.0
2023-03-12T08:27:00.798Z,2.0
2023-03-12T08:28:00.568Z,2.0
2023-03-12T08:29:00.555Z,2.0
2023-03-12T08:30:00.696Z,2.0
2023-03-12T08:31:00.605Z,2.0
2023-03-12T08:32:05.037Z,2.0
2023-03-12T08:33:00.624Z,2.0
2023-03-12T08:34:00.640Z,2.0
2023-03-12T08:35:00.610Z,2.0
2023-03-12T08:36:00.665Z,2.0
2023-03-12T08:37:00.705Z,2.0
2023-03-12T08:38:00.548Z,2.0
2023-03-12T08:39:00.584Z,2.0
2023-03-12T08:40:00.672Z,2.0
2023-03-12T08:41:00.575Z,2.2
2023-03-12T08:42:00.564Z,2.2
2023-03-12T08:43:00.586Z,2.2
2023-03-12T08:44:00.584Z,2.2
2023-03-12T08:45:00.552Z,2.2
2023-03-12T08:46:01.780Z,2.2
2023-03-12T08:47:00.558Z,2.2
2023-03-12T08:48:01.313Z,2.2
2023-03-12T08:49:00.563Z,2.2
2023-03-12T08:50:00.850Z,2.2
2023-03-12T08:51:00.858Z,2.2
2023-03-12T08:52:00.594Z,2.2
2023-03-12T08:53:00.561Z,2.2
2023-03-12T08:54:00.569Z,2.2
2023-03-12T08:55:00.622Z,2.2
2023-03-12T08:56:00.667Z,2.2
2023-03-12T08:57:00.576Z,2.2
2023-03-12T08:58:00.592Z,2.2
2023-03-12T08:59:00.557Z,2.2
2023-03-12T09:00:00.732Z,2.2
2023-03-12T09:01:00.569Z,2.0
2023-03-12T09:02:00.577Z,2.0
2023-03-12T09:03:00.689Z,2.0
2023-03-12T09:04:01.876Z,2.0
2023-03-12T09:05:00.590Z,2.0
2023-03-12T09:06:02.025Z,2.0
2023-03-12T09:07:00.596Z,2.0
2023-03-12T09:08:00.579Z,2.0
2023-03-12T09:09:00.774Z,2.0
2023-03-12T09:10:00.598Z,2.0
2023-03-12T09:11:00.559Z,2.0
2023-03-12T09:12:00.564Z,2.0
2023-03-12T09:13:01.165Z,2.0
2023-03-12T09:14:33.533Z,2.0
2023-03-12T09:15:03.889Z,2.0
2023-03-12T09:16:01.467Z,2.0
2023-03-12T09:17:00.914Z,2.0
2023-03-12T09:18:00.581Z,2.0
2023-03-12T09:19:00.610Z,2.0
2023-03-12T09:20:00.585Z,2.0
2023-03-12T09:21:00.882Z,1.8
2023-03-12T09:22:00.589Z,1.8
2023-03-12T09:23:00.553Z,1.8
2023-03-12T09:24:00.558Z,1.8
2023-03-12T09:25:00.558Z,1.8
2023-03-12T09:26:00.559Z,1.8
2023-03-12T09:27:00.947Z,1.8
2023-03-12T09:28:00.578Z,1.8
2023-03-12T09:29:00.592Z,1.8
2023-03-12T09:30:01.373Z,1.8
2023-03-12T09:31:01.167Z,1.8
2023-03-12T09:32:00.595Z,1.8
2023-03-12T09:33:00.615Z,1.8
2023-03-12T09:34:00.932Z,1.8
2023-03-12T09:35:00.574Z,1.8
2023-03-12T09:36:00.783Z,1.8
2023-03-12T09:37:00.573Z,1.8
2023-03-12T09:38:01.003Z,1.8
2023-03-12T09:39:00.585Z,1.8
2023-03-12T09:40:00.597Z,1.8
2023-03-12T09:41:02.660Z,1.9
2023-03-12T09:42:02.340Z,1.9
2023-03-12T09:43:01.593Z,1.9
2023-03-12T09:44:10.503Z,1.9
2023-03-12T09:45:02.075Z,1.9
2023-03-12T09:46:01.273Z,1.9
2023-03-12T09:47:04.573Z,1.9
2023-03-12T09:48:02.054Z,1.9
2023-03-12T09:49:04.414Z,1.9
2023-03-12T09:50:04.687Z,1.9
2023-03-12T09:51:05.113Z,1.9
2023-03-12T09:52:02.103Z,1.9
2023-03-12T09:53:03.527Z,1.9
2023-03-12T09:54:02.585Z,1.9
2023-03-12T09:55:05.841Z,1.9
2023-03-12T09:56:02.298Z,1.9
2023-03-12T09:57:02.290Z,1.9
2023-03-12T09:58:00.554Z,1.9
2023-03-12T09:59:00.796Z,1.9
2023-03-12T10:00:00.756Z,1.9
2023-03-12T10:01:10.489Z,1.5
2023-03-12T10:02:04.082Z,1.5
2023-03-12T10:03:08.041Z,1.5
2023-03-12T10:04:00.542Z,1.5
2023-03-12T10:05:05.092Z,1.5
2023-03-12T10:06:09.758Z,1.5
2023-03-12T10:07:00.560Z,1.5
2023-03-12T10:08:23.985Z,1.5
2023-03-12T10:09:10.481Z,1.5
2023-03-12T10:10:05.607Z,1.5
2023-03-12T10:11:10.488Z,1.5
2023-03-12T10:12:01.600Z,1.5
2023-03-12T10:13:00.558Z,1.5
2023-03-12T10:14:07.198Z,1.5
2023-03-12T10:15:09.761Z,1.5
2023-03-12T10:16:00.666Z,1.5
2023-03-12T10:17:10.482Z,1.5
2023-03-12T10:18:01.665Z,1.5
2023-03-12T10:19:10.490Z,1.5
2023-03-12T10:20:10.508Z,1.6
2023-03-12T10:21:01.613Z,1.6
2023-03-12T10:22:10.490Z,1.6
2023-03-12T10:23:10.488Z,1.6
2023-03-12T10:24:03.839Z,1.6
2023-03-12T10:25:03.809Z,1.6
2023-03-12T10:26:00.535Z,1.6
2023-03-12T10:27:00.579Z,1.6
2023-03-12T10:28:10.407Z,1.6
2023-03-12T10:29:10.480Z,1.6
2023-03-12T10:30:01.205Z,1.6
2023-03-12T10:31:03.796Z,1.6
2023-03-12T10:32:05.174Z,1.6
2023-03-12T10:33:02.959Z,1.6
2023-03-12T10:34:01.870Z,1.6
2023-03-12T10:35:03.371Z,1.6
2023-03-12T10:36:00.643Z,1.6
2023-03-12T10:37:03.879Z,1.6
2023-03-12T10:38:01.464Z,1.6
2023-03-12T10:39:01.003Z,1.6
2023-03-12T10:40:00.591Z,1.5
2023-03-12T10:41:10.463Z,1.5
2023-03-12T10:42:00.567Z,1.5
2023-03-12T10:43:01.193Z,1.5
2023-03-12T10:44:05.031Z,1.5
2023-03-12T10:45:07.969Z,1.5
2023-03-12T10:46:09.468Z,1.5
2023-03-12T10:47:10.503Z,1.5
2023-03-12T10:48:02.762Z,1.5
2023-03-12T10:49:10.501Z,1.5
2023-03-12T10:50:10.479Z,1.5
2023-03-12T10:51:05.445Z,1.5
2023-03-12T10:52:02.711Z,1.5
2023-03-12T10:53:10.501Z,1.5
2023-03-12T10:54:10.506Z,1.5
2023-03-12T10:55:09.388Z,1.5
2023-03-12T10:56:02.556Z,1.5
2023-03-12T10:57:00.736Z,1.5
2023-03-12T10:58:00.540Z,1.5
2023-03-12T10:59:00.570Z,1.5
2023-03-12T11:00:04.748Z,1.2
2023-03-12T11:01:01.601Z,1.2
2023-03-12T11:02:01.426Z,1.2
2023-03-12T11:03:03.105Z,1.2
2023-03-12T11:04:10.485Z,1.2
2023-03-12T11:05:01.536Z,1.2
2023-03-12T11:06:01.569Z,1.2
2023-03-12T11:07:04.490Z,1.2
2023-03-12T11:08:02.126Z,1.2
2023-03-12T11:09:15.750Z,1.2
2023-03-12T11:10:11.434Z,1.2
2023-03-12T11:11:01.800Z,1.2
2023-03-12T11:12:00.594Z,1.2
2023-03-12T11:13:02.320Z,1.2
2023-03-12T11:14:10.512Z,1.2
2023-03-12T11:15:10.480Z,1.2
2023-03-12T11:16:02.055Z,1.2
2023-03-12T11:17:10.516Z,1.2
2023-03-12T11:18:10.481Z,1.2
2023-03-12T11:19:01.982Z,1.2
2023-03-12T11:20:10.505Z,1.0
2023-03-12T11:21:07.847Z,1.0
2023-03-12T11:22:04.172Z,1.0
2023-03-12T11:23:10.480Z,1.0
2023-03-12T11:24:02.968Z,1.0
2023-03-12T11:25:03.263Z,1.0
2023-03-12T11:26:02.313Z,1.0
2023-03-12T11:27:03.815Z,1.0
2023-03-12T11:28:01.984Z,1.0
2023-03-12T11:29:04.162Z,1.0
2023-03-12T11:30:02.576Z,1.0
2023-03-12T11:31:01.076Z,1.0
2023-03-12T11:32:04.067Z,1.0
2023-03-12T11:33:00.567Z,1.0
2023-03-12T11:34:05.252Z,1.0
2023-03-12T11:35:00.862Z,1.0
2023-03-12T11:36:08.361Z,1.0
2023-03-12T11:37:10.512Z,1.0
2023-03-12T11:38:05.832Z,1.0
2023-03-12T11:39:02.300Z,1.0
2023-03-12T11:40:10.498Z,0.9
2023-03-12T11:41:00.554Z,0.9
2023-03-12T11:42:01.599Z,0.9
2023-03-12T11:43:10.479Z,0.9
2023-03-12T11:44:10.480Z,0.9
2023-03-12T11:45:01.575Z,0.9
2023-03-12T11:46:03.797Z,0.9
2023-03-12T11:47:00.532Z,0.9
2023-03-12T11:48:10.608Z,0.9
2023-03-12T11:49:00.534Z,0.9
2023-03-12T11:50:09.471Z,0.9
2023-03-12T11:51:08.810Z,0.9
2023-03-12T11:52:01.576Z,0.9
2023-03-12T11:53:10.505Z,0.9
2023-03-12T11:54:10.502Z,0.9
2023-03-12T11:55:01.590Z,0.9
2023-03-12T11:56:10.481Z,0.9
2023-03-12T11:57:05.519Z,0.9
2023-03-12T11:58:07.054Z,0.9
2023-03-12T11:59:10.247Z,0.9
2023-03-12T12:00:10.492Z,1.2
2023-03-12T12:01:07.576Z,1.2
2023-03-12T12:02:00.611Z,1.2
2023-03-12T12:03:01.640Z,1.2
2023-03-12T12:04:10.508Z,1.2
2023-03-12T12:05:00.556Z,1.2
2023-03-12T12:06:00.530Z,1.2
2023-03-12T12:07:00.536Z,1.2
2023-03-12T12:08:00.559Z,1.2
2023-03-12T12:09:08.004Z,1.2
2023-03-12T12:10:05.642Z,1.2
2023-03-12T12:11:10.520Z,1.2
2023-03-12T12:12:10.503Z,1.2
2023-03-12T12:13:03.863Z,1.2
2023-03-12T12:14:07.889Z,1.2
2023-03-12T12:15:01.562Z,1.2
2023-03-12T12:16:01.648Z,1.2
2023-03-12T12:17:10.507Z,1.2
2023-03-12T12:18:10.487Z,1.2
2023-03-12T12:19:10.515Z,1.2
2023-03-12T12:20:00.561Z,1.0
2023-03-12T12:21:10.506Z,1.0
2023-03-12T12:22:08.125Z,1.0
2023-03-12T12:23:08.808Z,1.0
2023-03-12T12:24:08.536Z,1.0
2023-03-12T12:25:10.480Z,1.0
2023-03-12T12:26:01.593Z,1.0
2023-03-12T12:27:10.509Z,1.0
2023-03-12T12:28:07.732Z,1.0
2023-03-12T12:29:10.508Z,1.0
2023-03-12T12:30:09.233Z,1.0
2023-03-12T12:31:00.538Z,1.0
2023-03-12T12:32:01.064Z,1.0
2023-03-12T12:33:08.924Z,1.0
2023-03-12T12:34:10.508Z,1.0
2023-03-12T12:35:00.578Z,1.0
2023-03-12T12:36:01.386Z,1.0
2023-03-12T12:37:10.485Z,1.0
2023-03-12T12:38:05.773Z,1.0
2023-03-12T12:39:05.231Z,1.0
2023-03-12T12:40:10.540Z,1.5
2023-03-12T12:41:06.727Z,1.5
2023-03-12T12:42:05.009Z,1.5
2023-03-12T12:43:09.922Z,1.5
2023-03-12T12:44:04.193Z,1.5
2023-03-12T12:45:02.315Z,1.5
2023-03-12T12:46:10.318Z,1.5
2023-03-12T12:47:03.018Z,1.5
2023-03-12T12:48:07.298Z,1.5
2023-03-12T12:49:04.049Z,1.5
2023-03-12T12:50:02.174Z,1.5
2023-03-12T12:51:01.040Z,1.5
2023-03-12T12:52:02.257Z,1.5
2023-03-12T12:53:04.556Z,1.5
2023-03-12T12:54:01.599Z,1.5
2023-03-12T12:55:10.475Z,1.5
2023-03-12T12:56:05.386Z,1.5
2023-03-12T12:57:09.701Z,1.5
2023-03-12T12:58:04.817Z,1.5
2023-03-12T12:59:03.834Z,1.5
2023-03-12T13:00:10.509Z,1.1
2023-03-12T13:01:01.405Z,1.1
2023-03-12T13:02:02.405Z,1.1
2023-03-12T13:03:00.669Z,1.1
2023-03-12T13:04:04.381Z,1.1
2023-03-12T13:05:00.598Z,1.1
2023-03-12T13:06:01.960Z,1.1
2023-03-12T13:07:00.557Z,1.1
2023-03-12T13:08:00.585Z,1.1
2023-03-12T13:09:10.480Z,1.1
2023-03-12T13:10:05.452Z,1.1
2023-03-12T13:11:18.182Z,1.1
2023-03-12T13:12:06.310Z,1.1
2023-03-12T13:13:09.176Z,1.1
2023-03-12T13:14:01.592Z,1.1
2023-03-12T13:15:01.443Z,1.1
2023-03-12T13:16:10.627Z,1.1
2023-03-12T13:17:06.067Z,1.1
2023-03-12T13:18:04.130Z,1.1
2023-03-12T13:19:10.511Z,1.1
2023-03-12T13:20:03.832Z,1.7
2023-03-12T13:21:10.510Z,1.7
2023-03-12T13:22:01.585Z,1.7
2023-03-12T13:23:01.562Z,1.7
2023-03-12T13:24:09.302Z,1.7
2023-03-12T13:25:08.847Z,1.7
2023-03-12T13:26:07.730Z,1.7
2023-03-12T13:27:10.514Z,1.7
2023-03-12T13:28:10.491Z,1.7
2023-03-12T13:29:12.812Z,1.7
2023-03-12T13:30:10.498Z,1.7
2023-03-12T13:31:02.332Z,1.7
2023-03-12T13:32:00.615Z,1.7
2023-03-12T13:33:00.604Z,1.7
2023-03-12T13:34:10.488Z,1.7
2023-03-12T13:35:10.527Z,1.7
2023-03-12T13:36:04.217Z,1.7
2023-03-12T13:37:01.406Z,1.7
2023-03-12T13:38:02.051Z,1.7
2023-03-12T13:39:10.520Z,1.7
2023-03-12T13:40:00.837Z,1.2
2023-03-12T13:41:00.694Z,1.2
2023-03-12T13:42:10.495Z,1.2
2023-03-12T13:43:05.332Z,1.2
2023-03-12T13:44:10.515Z,1.2
2023-03-12T13:45:10.488Z,1.2
2023-03-12T13:46:10.522Z,1.2